Time;durP1;ratioP1;P1;durP2;ratioP2;P2;SDS_P1;SDS_P2;PMS_P1;PMS_P2;Temp;Humidity;BMP_temperature;BMP_pressure;BME280_temperature;BME280_humidity;BME280_pressure;Samples;Min_cycle;Max_cycle;Signal;HPM_P1;HPM_P2
2021/03/29 00:00:34;;;;;;;4.93;1.55;;;24.10;75.10;;;;;;5072550;28;20462;-57
2021/03/29 00:03:02;;;;;;;3.83;1.17;;;24.20;71.10;;;;;;5072519;28;20028;-58
2021/03/29 00:05:32;;;;;;;2.50;1.30;;;24.30;72.60;;;;;;5054345;28;20056;-59
2021/03/29 00:08:06;;;;;;;5.93;1.40;;;24.30;71.90;;;;;;5045935;28;20543;-61
2021/03/29 00:10:36;;;;;;;9.85;1.23;;;24.40;73.30;;;;;;5068328;28;20024;-54
2021/03/29 00:13:04;;;;;;;6.30;1.30;;;24.40;72.30;;;;;;5052768;28;20024;-54
2021/03/29 00:15:38;;;;;;;2.45;1.10;;;24.40;74.20;;;;;;5068077;28;20024;-57
2021/03/29 00:18:11;;;;;;;5.50;1.05;;;24.30;74.40;;;;;;5068529;28;20039;-57
2021/03/29 00:20:41;;;;;;;2.95;1.23;;;24.30;72.80;;;;;;5070574;28;20146;-57
2021/03/29 00:23:12;;;;;;;2.83;1.17;;;24.30;74.40;;;;;;5052240;28;20115;-56
2021/03/29 00:25:39;;;;;;;9.57;1.52;;;24.30;74.80;;;;;;5064948;28;20031;-58
2021/03/29 00:28:07;;;;;;;3.80;0.90;;;24.30;72.80;;;;;;5069653;28;20044;-56
2021/03/29 00:30:39;;;;;;;5.50;1.25;;;24.40;74.60;;;;;;5070300;28;20361;-60
2021/03/29 00:33:08;;;;;;;3.85;1.33;;;24.40;72.20;;;;;;5070157;28;20020;-57
2021/03/29 00:35:41;;;;;;;5.30;1.52;;;24.50;74.50;;;;;;5064829;28;20486;-51
2021/03/29 00:38:11;;;;;;;3.83;1.40;;;24.50;71.10;;;;;;5069661;28;20107;-54
2021/03/29 00:40:41;;;;;;;7.15;1.60;;;24.60;73.70;;;;;;5070548;28;20025;-52
2021/03/29 00:43:14;;;;;;;15.00;2.03;;;24.60;71.20;;;;;;5069959;28;20013;-54
2021/03/29 00:45:43;;;;;;;5.07;1.15;;;24.70;70.40;;;;;;5065569;28;20036;-66
2021/03/29 00:48:13;;;;;;;6.60;1.45;;;24.70;70.10;;;;;;5069676;28;20031;-66
2021/03/29 00:50:54;;;;;;;2.97;1.15;;;24.60;70.30;;;;;;5070084;28;20032;-67
2021/03/29 00:53:23;;;;;;;2.33;1.17;;;24.60;71.10;;;;;;5070053;28;20039;-64
2021/03/29 00:55:51;;;;;;;6.63;1.58;;;24.70;73.40;;;;;;5064377;28;20080;-68
2021/03/29 00:58:23;;;;;;;5.72;1.30;;;24.70;71.20;;;;;;5069353;28;20028;-60
2021/03/29 01:00:59;;;;;;;2.78;1.25;;;24.80;70.80;;;;;;5068084;28;20086;-62
2021/03/29 01:03:30;;;;;;;6.35;1.13;;;24.90;72.90;;;;;;5070192;28;20039;-60
2021/03/29 01:06:07;;;;;;;1.90;0.75;;;24.90;70.50;;;;;;5065441;28;20094;-56
2021/03/29 01:08:44;;;;;;;2.38;1.08;;;25.00;72.00;;;;;;5067831;28;20052;-58
2021/03/29 01:11:21;;;;;;;10.43;1.45;;;25.10;70.50;;;;;;5069196;28;20025;-62
2021/03/29 01:13:57;;;;;;;5.72;0.88;;;25.30;71.10;;;;;;5067990;28;20447;-61
2021/03/29 01:16:30;;;;;;;4.45;1.02;;;25.40;70.00;;;;;;5065518;28;20040;-62
2021/03/29 01:18:59;;;;;;;5.05;1.38;;;25.40;71.80;;;;;;5070033;28;20123;-61
2021/03/29 01:22:06;;;;;;;4.47;0.88;;;25.50;67.80;;;;;;5071177;28;20609;-56
2021/03/29 01:24:42;;;;;;;5.57;1.48;;;25.60;67.10;;;;;;5069475;28;20086;-56
2021/03/29 01:27:11;;;;;;;3.47;1.10;;;25.70;68.00;;;;;;5067363;28;20031;-56
2021/03/29 01:29:40;;;;;;;2.92;1.10;;;25.80;68.80;;;;;;5068904;28;20023;-58
2021/03/29 01:32:08;;;;;;;7.95;1.40;;;25.90;69.50;;;;;;5070373;28;20100;-62
2021/03/29 01:34:39;;;;;;;5.18;1.42;;;25.90;65.60;;;;;;5070685;28;20498;-57
2021/03/29 01:37:07;;;;;;;5.70;0.93;;;26.00;69.20;;;;;;5066718;28;20032;-57
2021/03/29 01:39:36;;;;;;;5.43;1.27;;;26.10;69.10;;;;;;5069473;28;20028;-57
2021/03/29 01:42:05;;;;;;;4.38;1.30;;;26.30;64.80;;;;;;5052539;28;20107;-61
2021/03/29 01:44:44;;;;;;;4.75;1.23;;;26.40;66.60;;;;;;5071299;28;20421;-61
2021/03/29 01:47:12;;;;;;;5.70;1.52;;;26.40;65.70;;;;;;5035431;28;20396;-59
2021/03/29 01:49:41;;;;;;;3.67;1.05;;;26.40;66.50;;;;;;5070418;28;20422;-65
2021/03/29 01:52:49;;;;;;;4.63;1.17;;;26.50;67.30;;;;;;5053646;28;20025;-66
2021/03/29 01:55:30;;;;;;;1.55;0.70;;;26.50;67.80;;;;;;5043143;28;20482;-60
2021/03/29 01:58:31;;;;;;;4.00;1.48;;;26.50;67.80;;;;;;5051114;28;20720;-59
2021/03/29 02:01:08;;;;;;;5.55;1.38;;;26.70;65.40;;;;;;5063575;28;20518;-56
2021/03/29 02:03:36;;;;;;;7.13;1.80;;;26.60;67.40;;;;;;5051752;28;20796;-60
2021/03/29 02:06:06;;;;;;;4.35;1.33;;;26.60;67.50;;;;;;5065583;28;20044;-56
2021/03/29 02:08:50;;;;;;;;;;;;;;;;;;;;;
2021/03/29 02:11:25;;;;;;;2.95;1.00;;;26.50;68.10;;;;;;5069956;28;20036;-62
2021/03/29 02:13:57;;;;;;;4.53;1.10;;;26.50;68.00;;;;;;5068617;28;20028;-60
2021/03/29 02:16:28;;;;;;;1.83;0.75;;;26.40;68.20;;;;;;5062875;28;20032;-65
2021/03/29 02:19:00;;;;;;;;;;;26.40;68.40;;;;;;5068958;28;20042;-66
2021/03/29 02:21:35;;;;;;;3.13;1.03;;;26.20;69.10;;;;;;5070293;28;19970;-60
2021/03/29 02:24:05;;;;;;;2.67;0.77;;;26.20;67.30;;;;;;5070367;28;20391;-65
2021/03/29 02:26:36;;;;;;;2.38;1.05;;;26.20;68.60;;;;;;5064574;28;20012;-65
2021/03/29 02:29:05;;;;;;;4.77;1.23;;;26.10;69.70;;;;;;5068610;28;20078;-55
2021/03/29 02:31:34;;;;;;;4.47;1.10;;;25.90;69.40;;;;;;5070092;28;20159;-66
2021/03/29 02:34:03;;;;;;;3.08;0.80;;;25.80;69.40;;;;;;5069536;28;20032;-65
2021/03/29 02:36:31;;;;;;;3.20;1.30;;;25.70;70.80;;;;;;5064011;28;20889;-61
2021/03/29 02:39:00;;;;;;;5.80;1.27;;;25.60;72.00;;;;;;5068192;28;20207;-59
2021/03/29 02:41:32;;;;;;;7.82;2.38;;;25.50;72.60;;;;;;5071988;28;20074;-60
2021/03/29 02:44:00;;;;;;;3.80;1.10;;;25.40;70.50;;;;;;5071063;28;20029;-62
2021/03/29 02:46:31;;;;;;;5.22;1.27;;;25.40;73.00;;;;;;5068261;28;20030;-62
2021/03/29 02:49:02;;;;;;;4.28;1.40;;;25.40;72.50;;;;;;5068841;28;20498;-62
2021/03/29 02:51:30;;;;;;;5.03;1.57;;;25.30;73.70;;;;;;5070105;28;20389;-62
2021/03/29 02:54:02;;;;;;;2.15;1.00;;;25.20;72.70;;;;;;5069742;28;20455;-62
2021/03/29 02:56:38;;;;;;;3.92;1.35;;;25.20;73.00;;;;;;5064771;28;20027;-61
2021/03/29 02:59:14;;;;;;;6.00;1.65;;;25.20;74.60;;;;;;5071320;28;20068;-64
2021/03/29 03:01:42;;;;;;;7.50;2.38;;;25.20;74.90;;;;;;5072766;28;20025;-65
2021/03/29 03:04:12;;;;;;;6.43;2.10;;;25.20;75.20;;;;;;5071727;28;20028;-58
2021/03/29 03:06:41;;;;;;;6.30;2.10;;;25.20;75.10;;;;;;5067077;28;20055;-64
2021/03/29 03:09:13;;;;;;;3.78;1.40;;;25.20;75.80;;;;;;5070697;28;20399;-69
2021/03/29 03:11:48;;;;;;;3.28;1.35;;;25.20;75.70;;;;;;5072659;28;20491;-70
2021/03/29 03:14:16;;;;;;;5.05;1.80;;;25.20;75.50;;;;;;5054160;28;20371;-61
2021/03/29 03:16:44;;;;;;;6.18;2.05;;;25.20;73.40;;;;;;5067095;28;20520;-69
2021/03/29 03:19:12;;;;;;;3.45;1.90;;;25.30;74.20;;;;;;5070500;28;20109;-68
2021/03/29 03:21:39;;;;;;;4.93;2.05;;;25.30;74.80;;;;;;5072554;28;20103;-59
2021/03/29 03:24:07;;;;;;;6.68;1.73;;;25.40;75.60;;;;;;5072841;28;20031;-65
2021/03/29 03:26:35;;;;;;;5.85;1.90;;;25.40;74.80;;;;;;5064705;28;20028;-60
2021/03/29 03:29:03;;;;;;;2.95;1.45;;;25.40;75.80;;;;;;5070904;28;20474;-56
2021/03/29 03:31:32;;;;;;;4.32;1.50;;;25.50;75.50;;;;;;5071903;28;20040;-65
2021/03/29 03:34:00;;;;;;;5.07;1.40;;;25.50;74.50;;;;;;5072017;28;20078;-60
2021/03/29 03:36:29;;;;;;;3.65;1.60;;;25.60;72.70;;;;;;5067381;28;20475;-59
2021/03/29 03:38:58;;;;;;;5.35;1.80;;;25.60;72.30;;;;;;5071376;28;20491;-51
2021/03/29 03:41:33;;;;;;;3.40;1.52;;;25.70;71.80;;;;;;5072227;28;20026;-51
2021/03/29 03:44:03;;;;;;;5.18;1.70;;;25.60;74.60;;;;;;5072931;28;20031;-52
2021/03/29 03:46:37;;;;;;;3.15;1.25;;;25.50;73.20;;;;;;5067589;28;20143;-54
2021/03/29 03:49:19;;;;;;;2.67;1.42;;;25.50;75.10;;;;;;5071070;28;20064;-56
2021/03/29 03:51:48;;;;;;;3.00;1.45;;;25.50;75.90;;;;;;5071016;28;20421;-62
2021/03/29 03:54:17;;;;;;;2.90;1.20;;;25.40;74.70;;;;;;5072127;28;20041;-62
2021/03/29 03:56:46;;;;;;;4.10;1.35;;;25.50;76.10;;;;;;5064729;28;20302;-63
2021/03/29 03:59:13;;;;;;;5.70;1.65;;;25.50;74.00;;;;;;5071493;28;20068;-58
2021/03/29 04:02:06;;;;;;;3.38;1.55;;;25.50;73.90;;;;;;5072395;28;20024;-61
2021/03/29 04:04:35;;;;;;;3.55;1.52;;;25.50;76.10;;;;;;5072641;28;20040;-69
2021/03/29 04:07:03;;;;;;;5.60;1.48;;;25.50;74.60;;;;;;5046470;28;20071;-63
2021/03/29 04:09:44;;;;;;;2.33;1.25;;;25.60;76.10;;;;;;5071052;28;20036;-61
2021/03/29 04:12:13;;;;;;;3.28;1.38;;;25.60;73.00;;;;;;5070719;28;20499;-63
2021/03/29 04:14:41;;;;;;;2.70;1.02;;;25.60;74.20;;;;;;5070211;28;20547;-58
2021/03/29 04:17:08;;;;;;;1.75;1.10;;;25.70;75.40;;;;;;5064727;28;20048;-56
2021/03/29 04:19:36;;;;;;;3.28;1.50;;;25.70;75.60;;;;;;5070265;28;20047;-57
2021/03/29 04:22:05;;;;;;;3.40;1.00;;;25.70;74.40;;;;;;5071352;28;20024;-54
2021/03/29 04:24:33;;;;;;;4.55;1.55;;;25.70;75.60;;;;;;5071528;28;20056;-61
2021/03/29 04:27:00;;;;;;;8.35;1.30;;;25.80;73.90;;;;;;5062480;28;20020;-55
2021/03/29 04:29:28;;;;;;;3.95;1.17;;;25.80;75.20;;;;;;5071900;28;20070;-57
2021/03/29 04:31:55;;;;;;;4.47;1.70;;;25.80;73.40;;;;;;5071370;28;20028;-55
2021/03/29 04:34:23;;;;;;;4.68;1.67;;;25.80;75.50;;;;;;5072345;28;20017;-61
2021/03/29 04:36:50;;;;;;;4.57;1.20;;;25.80;75.70;;;;;;5073242;28;20385;-55
2021/03/29 04:39:18;;;;;;;3.83;1.20;;;25.80;75.50;;;;;;5069535;28;20401;-57
2021/03/29 04:41:45;;;;;;;3.38;1.27;;;25.80;72.50;;;;;;5061309;28;20373;-55
2021/03/29 04:44:12;;;;;;;2.20;1.00;;;25.80;75.90;;;;;;5069286;28;20025;-53
2021/03/29 04:46:40;;;;;;;6.82;1.08;;;25.80;74.90;;;;;;5070713;28;20107;-54
2021/03/29 04:49:10;;;;;;;4.18;1.13;;;25.90;75.50;;;;;;5067788;28;20040;-51
2021/03/29 04:51:38;;;;;;;3.17;1.35;;;26.00;72.70;;;;;;5069985;28;20070;-54
2021/03/29 04:54:06;;;;;;;3.63;1.10;;;26.10;74.20;;;;;;5070870;28;20483;-53
2021/03/29 04:56:37;;;;;;;3.35;1.40;;;26.10;70.80;;;;;;5070725;28;20107;-54
2021/03/29 04:59:14;;;;;;;5.68;1.60;;;26.10;74.60;;;;;;5048483;28;20626;-60
2021/03/29 05:01:46;;;;;;;9.73;1.40;;;26.20;72.70;;;;;;5052748;28;20044;-57
2021/03/29 05:04:14;;;;;;;1.85;0.80;;;26.20;73.10;;;;;;5069448;28;20119;-55
2021/03/29 05:06:41;;;;;;;5.28;1.38;;;26.20;70.60;;;;;;5069802;28;20043;-61
2021/03/29 05:09:09;;;;;;;5.28;1.08;;;26.30;73.80;;;;;;5071918;28;20115;-59
2021/03/29 05:11:50;;;;;;;1.38;0.68;;;26.30;73.50;;;;;;5071900;28;20066;-64
2021/03/29 05:14:19;;;;;;;4.10;1.38;;;26.20;74.70;;;;;;5072398;28;20078;-66
2021/03/29 05:16:47;;;;;;;4.47;1.08;;;26.20;72.80;;;;;;5072293;28;20025;-65
2021/03/29 05:19:15;;;;;;;3.58;0.90;;;26.20;72.20;;;;;;5071706;28;20074;-63
2021/03/29 05:21:43;;;;;;;3.58;0.70;;;26.20;72.50;;;;;;5071990;28;20487;-63
2021/03/29 05:24:11;;;;;;;2.45;0.98;;;26.20;73.80;;;;;;5071867;28;20082;-56
2021/03/29 05:26:38;;;;;;;4.03;1.00;;;26.10;74.80;;;;;;5071801;28;20039;-64
2021/03/29 05:29:05;;;;;;;3.33;0.82;;;26.10;73.70;;;;;;5071745;28;20115;-66
2021/03/29 05:31:39;;;;;;;5.35;1.02;;;26.10;74.10;;;;;;5071635;28;20021;-63
2021/03/29 05:34:11;;;;;;;4.63;1.15;;;26.20;72.40;;;;;;5070873;28;20464;-63
2021/03/29 05:36:42;;;;;;;4.75;1.17;;;26.20;69.60;;;;;;5072036;28;20025;-58
2021/03/29 05:39:11;;;;;;;2.95;1.10;;;26.20;74.30;;;;;;5071522;28;20036;-54
2021/03/29 05:41:42;;;;;;;2.20;0.98;;;26.10;74.60;;;;;;5071560;28;20035;-65
2021/03/29 05:44:11;;;;;;;1.90;0.98;;;26.10;74.80;;;;;;5071400;28;20050;-66
2021/03/29 05:46:41;;;;;;;3.40;0.95;;;26.10;74.30;;;;;;5071330;28;20020;-61
2021/03/29 05:49:09;;;;;;;1.70;0.80;;;26.10;73.70;;;;;;5071179;28;20497;-65
2021/03/29 05:51:39;;;;;;;5.40;0.90;;;26.10;74.30;;;;;;5071133;28;20360;-54
2021/03/29 05:54:08;;;;;;;3.35;1.20;;;26.10;75.00;;;;;;5071471;28;20052;-61
2021/03/29 05:56:38;;;;;;;6.78;1.10;;;26.10;74.00;;;;;;5071364;28;20487;-59
2021/03/29 05:59:10;;;;;;;5.93;0.90;;;26.00;70.30;;;;;;5071049;28;20554;-62
2021/03/29 06:01:56;;;;;;;2.80;1.13;;;25.90;74.40;;;;;;5070994;28;20120;-57
2021/03/29 06:04:46;;;;;;;5.80;0.95;;;25.80;75.80;;;;;;5071528;28;20060;-61
2021/03/29 06:07:22;;;;;;;3.92;1.23;;;25.90;74.30;;;;;;5062687;28;21539;-65
2021/03/29 06:09:51;;;;;;;2.10;0.80;;;25.80;76.00;;;;;;5066304;28;20381;-62
2021/03/29 06:12:21;;;;;;;2.78;0.70;;;25.80;75.40;;;;;;5068732;28;20113;-61
2021/03/29 06:15:00;;;;;;;1.85;0.60;;;25.80;72.10;;;;;;5068858;28;20036;-64
2021/03/29 06:17:27;;;;;;;3.45;0.82;;;25.80;74.30;;;;;;5067395;28;20025;-65
2021/03/29 06:20:00;;;;;;;3.13;0.70;;;25.80;74.30;;;;;;5073630;28;20509;-63
2021/03/29 06:22:35;;;;;;;2.70;0.70;;;25.80;75.90;;;;;;5072645;28;20070;-66
2021/03/29 06:25:13;;;;;;;2.28;0.90;;;25.80;76.20;;;;;;5072894;28;20101;-62
2021/03/29 06:27:51;;;;;;;2.28;0.70;;;25.80;76.30;;;;;;5068018;28;20020;-52
2021/03/29 06:30:20;;;;;;;3.58;1.00;;;25.70;75.60;;;;;;5072895;28;20028;-52
2021/03/29 06:33:06;;;;;;;5.20;0.98;;;25.80;75.60;;;;;;5073170;28;20020;-55
2021/03/29 06:35:37;;;;;;;12.88;1.67;;;25.70;76.20;;;;;;5071123;28;20141;-53
2021/03/29 06:38:16;;;;;;;1.90;0.75;;;25.70;76.10;;;;;;5066886;28;20013;-60
2021/03/29 06:40:56;;;;;;;1.10;0.60;;;25.80;75.80;;;;;;5072654;28;20033;-58
2021/03/29 06:43:27;;;;;;;1.58;0.80;;;25.80;75.20;;;;;;5070109;28;20039;-52
2021/03/29 06:46:00;;;;;;;4.95;1.13;;;25.70;75.90;;;;;;5072510;28;20040;-50
2021/03/29 06:48:29;;;;;;;1.15;0.70;;;25.80;73.60;;;;;;5066870;28;20033;-53
2021/03/29 06:51:17;;;;;;;1.80;0.80;;;25.80;75.50;;;;;;5059144;28;20032;-61
2021/03/29 06:53:52;;;;;;;1.45;0.68;;;25.70;73.60;;;;;;5072683;28;20040;-55
2021/03/29 06:56:28;;;;;;;4.68;1.10;;;25.70;75.50;;;;;;5073846;28;20025;-58
2021/03/29 06:59:06;;;;;;;8.68;7.88;;;25.60;67.30;;;;;;5074073;28;20048;-55
2021/03/29 07:01:38;;;;;;;4.68;0.80;;;25.50;71.50;;;;;;5070492;28;20032;-51
2021/03/29 07:04:06;;;;;;;4.32;2.70;;;25.20;75.80;;;;;;5073595;28;20028;-59
2021/03/29 07:06:36;;;;;;;2.38;1.75;;;25.00;76.90;;;;;;5073758;28;20052;-58
2021/03/29 07:11:32;;;;;;;3.78;2.83;;;24.90;77.40;;;;;;5073631;28;20146;-59
2021/03/29 07:14:01;;;;;;;5.68;2.42;;;24.90;72.20;;;;;;5072934;28;20024;-61
2021/03/29 07:16:29;;;;;;;3.70;3.25;;;24.70;73.40;;;;;;5070353;28;20116;-53
2021/03/29 07:18:58;;;;;;;22.55;20.08;;;24.80;77.30;;;;;;5070185;28;20036;-57
2021/03/29 07:21:26;;;;;;;13.85;12.15;;;24.90;73.90;;;;;;5071238;28;20505;-55
2021/03/29 07:23:54;;;;;;;28.63;25.38;;;25.00;71.00;;;;;;5071294;28;20036;-57
2021/03/29 07:26:27;;;;;;;17.13;11.10;;;25.00;70.90;;;;;;5071179;28;20065;-54
2021/03/29 07:28:56;;;;;;;32.72;29.52;;;25.00;70.10;;;;;;5071948;28;20518;-54
2021/03/29 07:31:44;;;;;;;17.25;15.25;;;25.00;68.90;;;;;;5054696;28;20158;-54
2021/03/29 07:34:11;;;;;;;13.10;11.23;;;25.00;68.40;;;;;;5073330;28;20479;-48
2021/03/29 07:36:50;;;;;;;20.50;18.40;;;25.10;69.60;;;;;;5073593;28;20136;-58
2021/03/29 07:39:36;;;;;;;14.88;13.38;;;25.00;69.60;;;;;;5073300;28;20470;-58
2021/03/29 07:42:24;;;;;;;21.23;8.35;;;25.00;70.20;;;;;;5072616;28;20025;-56
2021/03/29 07:45:12;;;;;;;10.63;5.60;;;25.00;72.90;;;;;;5073460;28;20025;-54
2021/03/29 07:47:56;;;;;;;12.50;6.63;;;24.90;71.00;;;;;;5073205;28;20036;-58
2021/03/29 07:50:26;;;;;;;16.10;5.78;;;24.80;74.60;;;;;;5073311;28;20033;-53
2021/03/29 07:52:56;;;;;;;15.43;6.03;;;24.70;74.60;;;;;;5073525;28;20449;-57
2021/03/29 07:55:24;;;;;;;11.05;5.13;;;24.70;76.60;;;;;;5073747;28;20031;-50
2021/03/29 07:57:52;;;;;;;9.15;4.70;;;24.60;75.00;;;;;;5073828;28;20108;-56
2021/03/29 08:00:26;;;;;;;26.42;6.72;;;24.60;77.70;;;;;;5072711;28;20040;-60
2021/03/29 08:02:58;;;;;;;19.00;5.00;;;24.50;77.20;;;;;;5055006;28;20494;-55
2021/03/29 08:05:48;;;;;;;8.98;4.43;;;24.60;78.00;;;;;;5074041;28;20040;-58
2021/03/29 08:08:27;;;;;;;21.40;4.35;;;24.50;78.80;;;;;;5073060;28;20138;-55
2021/03/29 08:11:02;;;;;;;16.38;4.53;;;24.50;77.80;;;;;;5073494;28;20093;-49
2021/03/29 08:13:52;;;;;;;6.28;3.10;;;24.50;74.80;;;;;;5073532;28;20025;-62
2021/03/29 08:16:24;;;;;;;8.32;3.08;;;24.40;75.30;;;;;;5072971;28;20028;-49
2021/03/29 08:19:14;;;;;;;8.05;3.17;;;24.40;76.60;;;;;;5073212;28;20064;-57
2021/03/29 08:22:02;;;;;;;8.90;2.97;;;24.40;78.00;;;;;;5072536;28;20439;-58
2021/03/29 08:24:39;;;;;;;13.40;3.38;;;24.30;77.90;;;;;;5072401;28;20032;-58
2021/03/29 08:27:19;;;;;;;9.68;2.95;;;24.30;77.40;;;;;;5073033;28;20028;-59
2021/03/29 08:29:54;;;;;;;10.63;3.03;;;24.30;76.00;;;;;;5072933;28;20475;-52
2021/03/29 08:32:37;;;;;;;18.80;3.38;;;24.30;77.70;;;;;;5072783;28;20027;-59
2021/03/29 08:35:04;;;;;;;13.98;2.80;;;24.30;78.30;;;;;;5070896;28;20577;-51
2021/03/29 08:37:40;;;;;;;9.18;2.47;;;24.40;76.50;;;;;;5070795;28;20043;-60
2021/03/29 08:40:26;;;;;;;11.05;2.47;;;24.30;77.00;;;;;;5070906;28;20100;-60
2021/03/29 08:42:56;;;;;;;5.35;2.28;;;24.20;71.30;;;;;;5071353;28;20032;-56
2021/03/29 08:45:25;;;;;;;13.40;2.53;;;24.20;74.50;;;;;;5070904;28;20094;-56
2021/03/29 08:47:58;;;;;;;6.10;2.30;;;24.20;77.10;;;;;;5071828;28;20013;-53
2021/03/29 08:50:36;;;;;;;10.32;2.30;;;24.20;77.40;;;;;;5072792;28;20032;-50
2021/03/29 08:53:04;;;;;;;20.00;2.70;;;24.20;78.10;;;;;;5073051;28;20033;-58
2021/03/29 08:55:34;;;;;;;7.05;1.85;;;24.20;78.00;;;;;;5072557;28;20417;-49
2021/03/29 08:58:03;;;;;;;11.05;2.17;;;24.20;78.00;;;;;;5073018;28;20028;-48
2021/03/29 09:00:36;;;;;;;12.32;2.20;;;24.10;78.20;;;;;;5072544;28;20036;-53
2021/03/29 09:03:03;;;;;;;10.07;2.97;;;24.20;80.40;;;;;;5072455;28;20060;-60
2021/03/29 09:05:31;;;;;;;11.45;2.33;;;24.10;80.20;;;;;;5072304;28;20021;-54
2021/03/29 09:08:10;;;;;;;13.27;2.28;;;24.10;79.90;;;;;;5084109;28;20050;-57
2021/03/29 09:10:38;;;;;;;8.35;2.22;;;24.10;80.00;;;;;;5072674;28;20379;-56
2021/03/29 09:13:09;;;;;;;6.25;1.92;;;24.10;79.80;;;;;;5072811;28;20028;-49
2021/03/29 09:15:54;;;;;;;7.25;1.42;;;24.10;80.50;;;;;;5072362;28;20032;-56
2021/03/29 09:18:28;;;;;;;9.77;1.70;;;24.10;80.40;;;;;;5071781;28;20487;-56
2021/03/29 09:20:55;;;;;;;9.98;2.75;;;24.20;80.40;;;;;;5072148;28;20372;-50
2021/03/29 09:23:33;;;;;;;8.23;1.80;;;24.10;81.20;;;;;;5071921;28;20021;-61
2021/03/29 09:26:02;;;;;;;8.63;2.20;;;24.20;80.60;;;;;;5053799;28;20568;-52
2021/03/29 09:31:09;;;;;;;5.78;1.63;;;24.20;80.10;;;;;;5072065;28;20024;-53
2021/03/29 09:33:39;;;;;;;14.52;2.80;;;24.20;80.20;;;;;;5072384;28;20760;-56
2021/03/29 09:36:10;;;;;;;12.35;2.13;;;24.20;82.40;;;;;;5072389;28;20028;-50
2021/03/29 09:38:40;;;;;;;7.65;2.05;;;24.20;79.40;;;;;;5072632;28;20122;-49
2021/03/29 09:41:48;;;;;;;9.45;2.00;;;24.10;78.10;;;;;;5054821;28;20024;-58
2021/03/29 09:44:15;;;;;;;6.22;1.55;;;24.00;78.50;;;;;;5033135;28;20052;-62
2021/03/29 09:46:43;;;;;;;6.88;1.70;;;24.00;76.20;;;;;;5056069;28;20055;-53
2021/03/29 09:49:16;;;;;;;9.43;1.92;;;24.00;78.60;;;;;;5068740;28;20024;-59
2021/03/29 09:51:46;;;;;;;6.70;2.03;;;23.90;79.30;;;;;;5073316;28;20489;-56
2021/03/29 09:54:31;;;;;;;14.02;4.10;;;23.90;78.10;;;;;;5056926;28;20587;-61
2021/03/29 09:57:14;;;;;;;14.57;3.30;;;23.90;78.70;;;;;;5068130;28;20040;-55
2021/03/29 09:59:44;;;;;;;15.10;4.25;;;23.90;79.10;;;;;;5074351;28;20487;-57
2021/03/29 10:02:28;;;;;;;14.43;4.13;;;23.90;79.00;;;;;;5074237;28;20386;-54
2021/03/29 10:05:07;;;;;;;23.02;5.35;;;23.80;79.30;;;;;;5074208;28;20085;-56
2021/03/29 10:07:35;;;;;;;15.20;4.80;;;23.80;79.70;;;;;;5067945;28;20181;-62
2021/03/29 10:10:06;;;;;;;16.10;4.72;;;23.80;80.20;;;;;;5054715;28;20108;-62
2021/03/29 10:12:36;;;;;;;15.52;4.30;;;23.80;79.40;;;;;;5053987;28;20104;-64
2021/03/29 10:15:14;;;;;;;22.85;4.97;;;23.70;79.30;;;;;;5070370;28;20471;-60
2021/03/29 10:17:42;;;;;;;17.23;4.88;;;23.70;79.80;;;;;;5069084;28;20031;-57
2021/03/29 10:20:13;;;;;;;12.65;3.83;;;23.70;79.90;;;;;;5074161;28;20757;-63
2021/03/29 10:22:41;;;;;;;11.18;3.78;;;23.60;80.00;;;;;;5074653;28;20031;-54
2021/03/29 10:25:23;;;;;;;16.73;4.30;;;23.60;79.70;;;;;;5073561;28;20028;-52
2021/03/29 10:27:56;;;;;;;14.82;4.18;;;23.60;80.10;;;;;;5068565;28;20475;-50
2021/03/29 10:30:30;;;;;;;16.60;4.82;;;23.60;79.70;;;;;;5056311;28;20033;-58
2021/03/29 10:33:08;;;;;;;12.88;4.07;;;23.60;79.60;;;;;;5056746;28;20028;-60
2021/03/29 10:35:36;;;;;;;19.33;4.72;;;23.60;79.50;;;;;;5056230;28;20028;-60
2021/03/29 10:38:04;;;;;;;16.52;5.28;;;23.60;79.70;;;;;;5069050;28;20028;-58
2021/03/29 10:40:34;;;;;;;17.17;4.78;;;23.60;80.00;;;;;;5074157;28;20024;-53
2021/03/29 10:43:02;;;;;;;14.90;4.47;;;23.60;79.20;;;;;;5074498;28;20020;-60
2021/03/29 10:45:30;;;;;;;16.70;4.95;;;23.60;79.60;;;;;;5073070;28;20418;-55
2021/03/29 10:47:58;;;;;;;17.23;4.78;;;23.60;80.00;;;;;;5051255;28;20036;-57
2021/03/29 10:50:25;;;;;;;17.10;5.07;;;23.50;80.10;;;;;;5056045;28;20182;-55
2021/03/29 10:52:53;;;;;;;14.48;4.40;;;23.50;80.30;;;;;;5055846;28;20017;-57
2021/03/29 10:55:21;;;;;;;16.17;4.47;;;23.50;80.30;;;;;;5073650;28;20111;-57
2021/03/29 10:57:49;;;;;;;17.48;4.22;;;23.40;80.40;;;;;;5068379;28;20056;-55
2021/03/29 11:00:17;;;;;;;12.75;3.83;;;23.40;80.80;;;;;;5073954;28;20037;-59
2021/03/29 11:02:46;;;;;;;13.63;4.07;;;23.40;80.70;;;;;;5055924;28;20025;-56
2021/03/29 11:05:14;;;;;;;20.52;5.45;;;23.40;80.80;;;;;;5073034;28;20043;-61
2021/03/29 11:07:42;;;;;;;14.18;4.38;;;23.30;80.80;;;;;;5067882;28;20422;-54
2021/03/29 11:10:11;;;;;;;10.60;4.55;;;23.30;81.00;;;;;;5073343;28;20020;-53
2021/03/29 11:12:39;;;;;;;14.30;4.40;;;23.30;81.10;;;;;;5073728;28;20024;-62
2021/03/29 11:15:10;;;;;;;19.33;4.35;;;23.20;81.50;;;;;;5073343;28;20495;-58
2021/03/29 11:17:38;;;;;;;13.18;4.68;;;23.20;81.40;;;;;;5068087;28;20434;-52
2021/03/29 11:20:10;;;;;;;12.25;3.65;;;23.20;81.50;;;;;;5073544;28;20506;-53
2021/03/29 11:22:37;;;;;;;12.95;3.95;;;23.10;81.60;;;;;;5073306;28;20025;-61
2021/03/29 11:25:07;;;;;;;11.35;4.10;;;23.10;81.60;;;;;;5073617;28;20036;-57
2021/03/29 11:27:34;;;;;;;12.52;4.32;;;23.10;81.60;;;;;;5067656;28;20028;-60
2021/03/29 11:30:04;;;;;;;18.10;4.40;;;23.10;81.70;;;;;;5072093;28;20013;-58
2021/03/29 11:32:31;;;;;;;17.13;4.18;;;23.00;82.20;;;;;;5072513;28;20121;-56
2021/03/29 11:34:58;;;;;;;13.77;4.15;;;23.10;82.10;;;;;;5072399;28;20032;-55
2021/03/29 11:37:26;;;;;;;10.40;3.47;;;23.10;82.00;;;;;;5066155;28;20020;-59
2021/03/29 11:39:53;;;;;;;14.90;4.20;;;23.00;81.90;;;;;;5070770;28;20036;-62
2021/03/29 11:42:21;;;;;;;9.20;3.60;;;23.00;81.90;;;;;;5072389;28;20552;-53
2021/03/29 11:44:48;;;;;;;10.15;3.92;;;23.00;81.80;;;;;;5069802;28;20044;-62
2021/03/29 11:47:15;;;;;;;9.70;4.50;;;23.00;81.90;;;;;;5072870;28;20112;-60
2021/03/29 11:49:43;;;;;;;13.07;3.47;;;23.00;81.90;;;;;;5073751;28;20401;-58
2021/03/29 11:52:10;;;;;;;15.85;3.97;;;23.00;82.00;;;;;;5056011;28;20525;-53
2021/03/29 11:54:37;;;;;;;14.77;3.90;;;22.90;82.00;;;;;;5073544;28;20041;-57
2021/03/29 11:57:05;;;;;;;15.07;4.65;;;22.90;82.20;;;;;;5073268;28;20029;-59
2021/03/29 11:59:33;;;;;;;10.57;3.72;;;22.90;82.20;;;;;;5072794;28;20038;-56
2021/03/29 12:02:05;;;;;;;15.45;4.25;;;22.90;82.30;;;;;;5072861;28;20059;-55
2021/03/29 12:05:04;;;;;;;12.15;3.75;;;22.90;82.50;;;;;;5055192;28;20474;-55
2021/03/29 12:11:49;;;;;;;13.27;3.63;;;22.80;82.60;;;;;;5072661;28;20066;-57
2021/03/29 12:12:43;;;;;;;13.43;3.80;;;22.80;82.50;;;;;;5073173;28;20033;-58
2021/03/29 12:15:15;;;;;;;10.27;3.42;;;22.80;82.60;;;;;;5071968;28;20495;-59
2021/03/29 12:17:44;;;;;;;12.18;3.88;;;22.80;82.70;;;;;;5072704;28;20487;-57
2021/03/29 12:20:14;;;;;;;13.32;3.83;;;22.70;82.70;;;;;;5072671;28;20052;-61
2021/03/29 12:22:45;;;;;;;12.30;4.28;;;22.70;82.90;;;;;;5060865;28;20021;-50
2021/03/29 12:25:31;;;;;;;14.75;4.45;;;22.70;83.40;;;;;;5069415;28;20053;-51
2021/03/29 12:27:58;;;;;;;9.77;3.22;;;22.70;83.40;;;;;;5070231;28;20025;-54
2021/03/29 12:30:26;;;;;;;9.85;3.30;;;22.70;83.70;;;;;;5069638;28;20024;-57
2021/03/29 12:32:55;;;;;;;11.43;3.78;;;22.70;83.40;;;;;;5070379;28;20112;-52
2021/03/29 12:35:23;;;;;;;10.93;3.80;;;22.70;83.60;;;;;;5071526;28;20036;-63
2021/03/29 12:37:53;;;;;;;11.82;4.03;;;22.60;83.60;;;;;;5067204;28;20021;-62
2021/03/29 12:40:24;;;;;;;15.10;3.88;;;22.60;83.60;;;;;;5068926;28;20090;-60
2021/03/29 12:45:28;;;;;;;13.25;3.72;;;22.60;83.60;;;;;;5070461;28;20473;-50
2021/03/29 12:48:00;;;;;;;11.48;3.35;;;22.60;83.50;;;;;;5068308;28;20100;-57
2021/03/29 12:50:29;;;;;;;12.25;4.10;;;22.60;83.40;;;;;;5070911;28;20463;-58
2021/03/29 12:52:56;;;;;;;13.85;4.55;;;22.70;83.40;;;;;;5072917;28;20162;-59
2021/03/29 12:55:25;;;;;;;12.45;3.25;;;22.60;83.30;;;;;;5072304;28;20119;-65
2021/03/29 12:57:55;;;;;;;11.15;4.18;;;22.60;83.20;;;;;;5072443;28;20016;-56
2021/03/29 13:00:25;;;;;;;8.48;3.60;;;22.60;83.20;;;;;;5072309;28;20383;-59
2021/03/29 13:02:54;;;;;;;14.35;3.92;;;22.60;83.10;;;;;;5072356;28;20024;-63
2021/03/29 13:05:33;;;;;;;13.80;3.88;;;22.60;83.20;;;;;;5072072;28;20064;-63
2021/03/29 13:08:05;;;;;;;11.15;3.33;;;22.60;83.20;;;;;;5061678;28;20040;-58
2021/03/29 13:10:51;;;;;;;9.48;3.13;;;22.50;83.30;;;;;;5071086;28;20414;-56
2021/03/29 13:13:19;;;;;;;11.65;4.00;;;22.50;83.30;;;;;;5067104;28;20065;-67
2021/03/29 13:15:47;;;;;;;10.10;3.80;;;22.50;83.50;;;;;;5070377;28;20020;-65
2021/03/29 13:18:24;;;;;;;11.55;3.92;;;22.50;83.40;;;;;;5070148;28;20467;-63
2021/03/29 13:20:56;;;;;;;13.90;3.60;;;22.40;83.40;;;;;;5069223;28;20199;-67